Time;durP1;ratioP1;P1;durP2;ratioP2;P2;SDS_P1;SDS_P2;PMS_P1;PMS_P2;Temp;Humidity;BMP_temperature;BMP_pressure;BME280_temperature;BME280_humidity;BME280_pressure;Samples;Min_cycle;Max_cycle;Signal;HPM_P1;HPM_P2
2023/09/25 00:01:36;;;;;;;32.25;30.30;;;12.40;99.90;;;;;;6214056;23;20019;-81
2023/09/25 00:04:02;;;;;;;32.72;30.40;;;12.40;99.90;;;;;;6214225;23;20459;-82
2023/09/25 00:06:28;;;;;;;42.20;39.65;;;12.40;99.90;;;;;;6214051;23;20458;-81
2023/09/25 00:08:54;;;;;;;30.60;28.55;;;12.80;99.90;;;;;;6188955;23;20435;-81
2023/09/25 00:11:20;;;;;;;39.03;36.67;;;12.50;99.90;;;;;;6214071;23;20020;-82
2023/09/25 00:13:46;;;;;;;32.22;30.00;;;12.50;99.90;;;;;;6213715;23;20074;-81
2023/09/25 00:16:13;;;;;;;31.67;29.58;;;12.60;99.90;;;;;;6238980;23;20018;-81
2023/09/25 00:18:39;;;;;;;29.08;27.17;;;12.60;99.90;;;;;;6239108;23;20134;-82
2023/09/25 00:21:04;;;;;;;24.48;22.75;;;12.60;99.90;;;;;;6238845;23;20012;-81
2023/09/25 00:23:30;;;;;;;29.13;27.33;;;12.60;99.90;;;;;;6214015;23;20056;-81
2023/09/25 00:26:06;;;;;;;27.70;25.85;;;12.80;99.90;;;;;;6239050;23;20079;-81
2023/09/25 00:28:32;;;;;;;29.83;27.83;;;12.60;99.90;;;;;;6213769;23;20158;-82
2023/09/25 00:30:58;;;;;;;33.20;31.13;;;12.70;99.90;;;;;;6240785;23;20043;-81
2023/09/25 00:33:24;;;;;;;27.55;25.77;;;12.70;99.90;;;;;;6213896;23;20182;-82
2023/09/25 00:35:49;;;;;;;29.25;27.42;;;12.70;99.90;;;;;;6238952;23;20129;-82
2023/09/25 00:38:15;;;;;;;33.05;30.95;;;12.80;99.90;;;;;;6213818;23;20016;-81
2023/09/25 00:40:42;;;;;;;23.83;22.20;;;12.80;99.90;;;;;;6214022;23;20047;-82
2023/09/25 00:43:12;;;;;;;28.65;26.70;;;12.90;99.90;;;;;;6188915;23;20095;-81
2023/09/25 00:45:40;;;;;;;31.40;29.55;;;12.90;99.90;;;;;;6188617;23;20055;-82
2023/09/25 00:48:11;;;;;;;30.70;28.58;;;13.60;99.90;;;;;;6213732;23;20079;-82
2023/09/25 00:50:37;;;;;;;22.73;20.92;;;12.90;99.90;;;;;;6238551;23;20016;-81
2023/09/25 00:53:07;;;;;;;21.45;19.90;;;12.80;99.90;;;;;;6213716;23;20020;-82
2023/09/25 00:55:34;;;;;;;30.23;28.15;;;12.80;99.90;;;;;;6213909;23;20043;-82
2023/09/25 00:58:00;;;;;;;29.95;27.80;;;12.80;99.90;;;;;;6213626;23;20024;-81
2023/09/25 01:00:26;;;;;;;31.95;29.90;;;13.20;99.90;;;;;;6213551;23;20054;-81
2023/09/25 01:02:52;;;;;;;30.42;28.45;;;12.70;99.90;;;;;;6213433;23;20343;-82
2023/09/25 01:05:18;;;;;;;29.15;27.35;;;12.80;99.90;;;;;;6188167;23;20008;-81
2023/09/25 01:07:44;;;;;;;30.83;28.70;;;12.70;99.90;;;;;;6213685;23;20401;-82
2023/09/25 01:10:14;;;;;;;25.08;23.38;;;12.70;99.90;;;;;;6213553;23;20011;-82
2023/09/25 01:12:40;;;;;;;31.13;29.08;;;12.70;99.90;;;;;;6188715;23;20370;-81
2023/09/25 01:15:07;;;;;;;31.55;29.73;;;12.60;99.90;;;;;;6213640;23;20399;-81
2023/09/25 01:17:33;;;;;;;27.92;25.98;;;12.60;99.90;;;;;;6238758;23;20020;-82
2023/09/25 01:20:01;;;;;;;28.67;26.90;;;12.50;99.90;;;;;;6238348;23;20100;-82
2023/09/25 01:22:27;;;;;;;25.08;23.35;;;12.50;99.90;;;;;;6213636;23;20021;-81
2023/09/25 01:24:53;;;;;;;34.60;32.50;;;12.50;99.90;;;;;;6213915;23;20074;-81
2023/09/25 01:27:19;;;;;;;29.98;27.92;;;12.50;99.90;;;;;;6238797;23;20016;-82
2023/09/25 01:29:45;;;;;;;33.00;30.90;;;12.50;99.90;;;;;;6238765;23;20020;-82
2023/09/25 01:32:12;;;;;;;25.00;23.23;;;12.70;99.90;;;;;;6188849;23;20024;-82
2023/09/25 01:34:37;;;;;;;33.17;30.55;;;12.40;99.90;;;;;;6238100;23;20012;-82
2023/09/25 01:37:04;;;;;;;29.85;27.50;;;12.40;99.90;;;;;;6213765;23;20082;-82
2023/09/25 01:39:31;;;;;;;29.55;27.55;;;12.40;99.90;;;;;;6238983;23;20019;-82
2023/09/25 01:41:57;;;;;;;30.58;28.52;;;12.40;99.90;;;;;;6213431;23;20032;-81
2023/09/25 01:44:24;;;;;;;33.50;31.38;;;12.30;99.90;;;;;;6239403;23;20059;-82
2023/09/25 01:46:49;;;;;;;29.90;28.10;;;12.30;99.90;;;;;;6188650;23;20095;-81
2023/09/25 01:49:15;;;;;;;34.08;31.70;;;12.40;99.90;;;;;;6213059;23;20410;-82
2023/09/25 01:51:43;;;;;;;45.75;42.80;;;12.70;99.90;;;;;;6213870;23;20083;-82
2023/09/25 01:54:09;;;;;;;30.20;28.35;;;12.40;99.90;;;;;;6188412;23;20016;-82
2023/09/25 01:56:35;;;;;;;37.53;35.10;;;12.10;99.90;;;;;;6238494;23;20367;-82
2023/09/25 01:59:00;;;;;;;26.30;24.65;;;12.10;99.90;;;;;;6213435;23;20343;-81
2023/09/25 02:01:26;;;;;;;39.17;36.88;;;12.10;99.90;;;;;;6237892;23;20016;-81
2023/09/25 02:03:52;;;;;;;36.55;34.25;;;12.10;99.90;;;;;;6213453;23;20454;-81
2023/09/25 02:06:17;;;;;;;50.50;47.22;;;12.10;99.90;;;;;;6238592;23;20358;-81
2023/09/25 02:08:43;;;;;;;44.47;41.63;;;12.10;99.90;;;;;;6188595;23;20016;-82
2023/09/25 02:11:09;;;;;;;48.47;45.45;;;12.30;99.90;;;;;;6213758;23;20067;-82
2023/09/25 02:13:34;;;;;;;32.08;30.13;;;12.00;99.90;;;;;;6238724;23;20062;-81
2023/09/25 02:16:00;;;;;;;46.25;43.28;;;12.10;99.90;;;;;;6214536;23;20012;-81
2023/09/25 02:18:26;;;;;;;53.33;50.28;;;12.00;99.90;;;;;;6215247;23;20451;-82
2023/09/25 02:20:51;;;;;;;53.75;50.67;;;12.00;99.90;;;;;;6214872;23;20181;-81
2023/09/25 02:23:18;;;;;;;39.45;37.00;;;12.40;99.90;;;;;;6215282;23;20020;-82
2023/09/25 02:25:44;;;;;;;49.92;46.83;;;12.00;99.90;;;;;;6215007;23;20016;-84
2023/09/25 02:28:10;;;;;;;50.35;47.25;;;12.00;99.90;;;;;;6215128;23;20024;-82
2023/09/25 02:30:36;;;;;;;47.20;44.28;;;11.90;99.90;;;;;;6240136;23;20012;-81
2023/09/25 02:33:02;;;;;;;49.40;46.50;;;11.90;99.90;;;;;;6240337;23;20320;-81
2023/09/25 02:35:28;;;;;;;42.90;40.13;;;11.90;99.90;;;;;;6190175;23;20020;-82
2023/09/25 02:37:54;;;;;;;62.05;58.03;;;12.00;99.90;;;;;;6215289;23;20104;-81
2023/09/25 02:40:19;;;;;;;59.92;56.58;;;11.90;99.90;;;;;;6190246;23;20031;-82
2023/09/25 02:42:45;;;;;;;47.25;44.42;;;11.90;99.90;;;;;;6215510;23;20339;-82
2023/09/25 02:45:11;;;;;;;52.05;48.92;;;11.90;99.90;;;;;;6214420;23;20012;-82
2023/09/25 02:47:37;;;;;;;53.75;50.28;;;11.90;99.90;;;;;;6215246;23;20012;-82
2023/09/25 02:50:03;;;;;;;55.25;52.05;;;12.20;99.90;;;;;;6215155;23;20008;-81
2023/09/25 02:52:29;;;;;;;42.90;40.15;;;11.50;99.90;;;;;;6240176;23;20039;-81
2023/09/25 02:54:54;;;;;;;56.55;52.75;;;11.90;99.90;;;;;;6240304;23;20020;-82
2023/09/25 02:57:20;;;;;;;47.70;44.75;;;11.80;99.90;;;;;;6215157;23;20026;-82
2023/09/25 02:59:46;;;;;;;63.50;59.80;;;11.80;99.90;;;;;;6214674;23;20058;-82
2023/09/25 03:02:12;;;;;;;67.55;63.72;;;11.80;99.90;;;;;;6215054;23;20512;-81
2023/09/25 03:04:37;;;;;;;55.97;52.65;;;11.70;99.90;;;;;;6239933;23;20015;-82
2023/09/25 03:07:03;;;;;;;62.38;58.88;;;11.70;99.90;;;;;;6215200;23;20040;-81
2023/09/25 03:09:29;;;;;;;52.00;49.10;;;11.70;99.90;;;;;;6215283;23;20015;-82
2023/09/25 03:11:55;;;;;;;58.85;55.25;;;11.70;99.90;;;;;;6214809;23;20066;-81
2023/09/25 03:14:20;;;;;;;57.67;54.35;;;11.30;99.90;;;;;;6214170;23;20091;-82
2023/09/25 03:16:49;;;;;;;60.70;57.08;;;11.70;99.90;;;;;;6209533;23;20092;-82
2023/09/25 03:19:15;;;;;;;59.75;56.25;;;11.60;99.90;;;;;;6209985;23;20283;-81
2023/09/25 03:21:41;;;;;;;65.25;61.35;;;11.60;99.90;;;;;;6235062;23;20076;-82
2023/09/25 03:24:07;;;;;;;57.72;54.38;;;11.60;99.90;;;;;;6235031;23;20180;-82
2023/09/25 03:26:33;;;;;;;63.75;60.10;;;11.60;99.90;;;;;;6234787;23;20013;-82
2023/09/25 03:28:59;;;;;;;64.15;60.08;;;12.30;99.90;;;;;;6234363;23;20024;-82
2023/09/25 03:31:24;;;;;;;59.65;56.22;;;11.60;99.90;;;;;;6234888;23;20357;-81
2023/09/25 03:33:50;;;;;;;62.90;59.33;;;11.60;99.90;;;;;;6234984;23;20020;-81
2023/09/25 03:36:16;;;;;;;65.30;61.58;;;11.70;99.90;;;;;;6209702;23;20230;-82
2023/09/25 03:38:41;;;;;;;55.70;52.42;;;11.60;99.90;;;;;;6234612;23;20013;-82
2023/09/25 03:41:07;;;;;;;57.85;54.55;;;11.50;99.90;;;;;;6234754;23;20432;-82
2023/09/25 03:43:33;;;;;;;53.75;50.65;;;11.50;99.90;;;;;;6209119;23;20068;-82
2023/09/25 03:45:58;;;;;;;65.63;61.97;;;11.50;99.90;;;;;;6234789;23;20071;-82
2023/09/25 03:48:24;;;;;;;66.13;62.30;;;11.60;99.90;;;;;;6184293;23;20444;-82
2023/09/25 03:50:50;;;;;;;69.72;65.60;;;11.50;99.90;;;;;;6210983;23;20044;-82
2023/09/25 03:53:15;;;;;;;62.88;59.10;;;11.50;99.90;;;;;;6209493;23;20016;-82
2023/09/25 03:55:41;;;;;;;63.55;59.85;;;11.50;99.90;;;;;;6210971;23;20457;-82
2023/09/25 03:58:07;;;;;;;63.90;59.85;;;11.50;99.90;;;;;;6233868;23;20015;-82
2023/09/25 04:00:33;;;;;;;64.65;60.95;;;11.50;99.90;;;;;;6209188;23;20156;-82
2023/09/25 04:02:58;;;;;;;71.50;67.43;;;11.50;99.90;;;;;;6234242;23;20022;-82
2023/09/25 04:05:24;;;;;;;61.95;58.30;;;11.60;99.90;;;;;;6209246;23;20335;-82
2023/09/25 04:07:50;;;;;;;72.10;68.03;;;11.50;99.90;;;;;;6234510;23;20017;-82
2023/09/25 04:10:17;;;;;;;52.28;49.05;;;11.60;99.90;;;;;;6234312;23;20023;-82
2023/09/25 04:12:42;;;;;;;50.50;47.33;;;11.60;99.90;;;;;;6208670;23;20009;-82
2023/09/25 04:15:12;;;;;;;78.68;74.13;;;11.60;99.90;;;;;;6234331;23;20098;-82
2023/09/25 04:17:38;;;;;;;59.10;55.65;;;11.60;99.90;;;;;;6234301;23;20028;-82
2023/09/25 04:20:17;;;;;;;60.35;56.83;;;11.90;99.90;;;;;;6234265;23;20079;-82
2023/09/25 04:22:45;;;;;;;64.05;60.25;;;11.60;99.90;;;;;;6234362;23;20016;-82
2023/09/25 04:25:20;;;;;;;65.53;61.63;;;11.80;99.90;;;;;;6234170;23;20013;-82
2023/09/25 04:27:53;;;;;;;63.42;59.65;;;11.60;99.90;;;;;;6233712;23;20013;-82
2023/09/25 04:30:19;;;;;;;75.82;71.63;;;11.60;99.90;;;;;;6209035;23;20012;-82
2023/09/25 04:32:46;;;;;;;52.30;48.88;;;11.60;99.90;;;;;;6208753;23;20016;-82
2023/09/25 04:35:13;;;;;;;63.05;59.20;;;11.60;99.90;;;;;;6208675;23;20104;-82
2023/09/25 04:37:39;;;;;;;69.68;65.72;;;11.60;99.90;;;;;;6233988;23;20448;-82
2023/09/25 04:40:18;;;;;;;61.70;58.03;;;11.60;99.90;;;;;;6234482;23;20020;-82
2023/09/25 04:42:47;;;;;;;53.10;49.60;;;11.60;99.90;;;;;;6208536;23;20432;-82
2023/09/25 04:45:18;;;;;;;54.33;50.97;;;12.10;99.90;;;;;;6234132;23;20013;-82
2023/09/25 04:47:48;;;;;;;52.08;48.90;;;11.60;99.90;;;;;;6233963;23;20013;-82
2023/09/25 04:50:13;;;;;;;67.05;63.13;;;11.60;99.90;;;;;;6234231;23;20088;-82
2023/09/25 04:52:40;;;;;;;64.97;61.20;;;11.60;99.90;;;;;;6234468;23;20388;-81
2023/09/25 04:55:07;;;;;;;63.80;59.90;;;11.70;99.90;;;;;;6209093;23;20020;-82
2023/09/25 04:57:33;;;;;;;42.03;39.42;;;11.60;99.90;;;;;;6183747;23;20019;-82
2023/09/25 05:00:07;;;;;;;58.75;55.30;;;11.60;99.90;;;;;;6234379;23;20009;-82
2023/09/25 05:02:33;;;;;;;43.80;41.25;;;11.60;99.90;;;;;;6208991;23;20152;-82
2023/09/25 05:04:59;;;;;;;60.25;56.78;;;11.60;99.90;;;;;;6234169;23;20012;-81
2023/09/25 05:07:25;;;;;;;58.40;54.70;;;11.60;99.90;;;;;;6234336;23;20012;-81
2023/09/25 05:09:50;;;;;;;62.13;58.50;;;11.10;99.90;;;;;;6184025;23;20017;-82
2023/09/25 05:12:16;;;;;;;52.70;49.33;;;11.60;99.90;;;;;;6233836;23;20354;-82
2023/09/25 05:14:42;;;;;;;58.65;55.15;;;11.60;99.90;;;;;;6183843;23;20016;-82
2023/09/25 05:17:07;;;;;;;60.17;56.53;;;11.60;99.90;;;;;;6210453;23;20437;-82
2023/09/25 05:19:33;;;;;;;54.60;51.28;;;11.50;99.90;;;;;;6183968;23;20020;-82
2023/09/25 05:21:59;;;;;;;54.50;51.28;;;11.50;99.90;;;;;;6183966;23;20321;-82
2023/09/25 05:24:25;;;;;;;51.00;48.15;;;11.50;99.90;;;;;;6208915;23;20091;-82
2023/09/25 05:26:51;;;;;;;55.15;51.78;;;11.50;99.90;;;;;;6183932;23;20008;-82
2023/09/25 05:29:16;;;;;;;64.90;61.15;;;11.50;99.90;;;;;;6159670;23;20019;-81
2023/09/25 05:31:42;;;;;;;43.83;41.13;;;11.50;99.90;;;;;;6160438;23;20021;-82
2023/09/25 05:34:08;;;;;;;63.38;59.80;;;11.50;99.90;;;;;;6184614;23;20486;-82
2023/09/25 05:36:33;;;;;;;46.83;44.03;;;11.60;99.90;;;;;;6184752;23;20013;-82
2023/09/25 05:38:59;;;;;;;58.13;54.53;;;11.50;99.90;;;;;;6183663;23;20103;-82
2023/09/25 05:41:25;;;;;;;57.00;53.38;;;11.50;99.90;;;;;;6184219;23;20013;-82
2023/09/25 05:43:53;;;;;;;64.32;60.47;;;11.50;99.90;;;;;;6184232;23;20023;-82
2023/09/25 05:46:19;;;;;;;50.78;47.58;;;11.50;99.90;;;;;;6159149;23;20023;-82
2023/09/25 05:48:46;;;;;;;53.78;50.55;;;11.90;99.90;;;;;;6160531;23;20048;-82
2023/09/25 05:51:12;;;;;;;42.92;40.45;;;11.60;99.90;;;;;;6185901;23;20070;-82
2023/09/25 05:53:37;;;;;;;53.47;50.20;;;11.60;99.90;;;;;;6185850;23;20012;-82
2023/09/25 05:56:03;;;;;;;61.47;57.72;;;11.60;99.90;;;;;;6211232;23;20486;-82
2023/09/25 05:58:32;;;;;;;34.70;32.33;;;11.60;99.90;;;;;;6186225;23;20407;-82
2023/09/25 06:00:58;;;;;;;42.55;40.03;;;11.70;99.90;;;;;;6212397;23;20015;-82
2023/09/25 06:03:26;;;;;;;47.20;44.17;;;11.70;99.90;;;;;;6161355;23;20044;-82
2023/09/25 06:05:51;;;;;;;46.65;43.60;;;12.20;99.90;;;;;;6211317;23;20443;-82
2023/09/25 06:08:17;;;;;;;44.13;41.42;;;11.80;99.90;;;;;;6185461;23;20024;-82
2023/09/25 06:10:44;;;;;;;32.53;30.48;;;12.00;99.90;;;;;;6213101;23;20013;-82
2023/09/25 06:13:09;;;;;;;37.28;34.83;;;11.80;99.90;;;;;;6186270;23;20044;-81
2023/09/25 06:15:37;;;;;;;43.30;40.63;;;11.90;99.90;;;;;;6223570;23;20081;-82
2023/09/25 06:18:09;;;;;;;36.03;33.58;;;11.90;99.90;;;;;;6216443;23;20056;-82
2023/09/25 06:20:39;;;;;;;33.20;31.08;;;12.00;99.90;;;;;;6216024;23;20008;-81
2023/09/25 06:23:05;;;;;;;32.90;30.52;;;12.10;99.90;;;;;;6190296;23;20012;-82
2023/09/25 06:25:32;;;;;;;35.83;33.60;;;12.10;99.90;;;;;;6216218;23;20024;-82
2023/09/25 06:27:58;;;;;;;30.92;28.48;;;12.20;99.90;;;;;;6215862;23;20088;-82
2023/09/25 06:30:24;;;;;;;31.73;29.55;;;12.20;99.90;;;;;;6215925;23;20023;-82
2023/09/25 06:32:50;;;;;;;28.65;26.73;;;12.30;99.90;;;;;;6241120;23;20043;-81
2023/09/25 06:35:16;;;;;;;24.90;23.20;;;12.30;99.90;;;;;;6216267;23;20012;-82
2023/09/25 06:37:42;;;;;;;30.10;28.25;;;11.90;99.90;;;;;;6217257;23;20473;-82
2023/09/25 06:40:11;;;;;;;34.42;32.22;;;12.40;99.90;;;;;;6241608;23;20008;-82
2023/09/25 06:42:39;;;;;;;28.35;26.58;;;12.50;99.90;;;;;;6240914;23;20019;-82
2023/09/25 06:45:05;;;;;;;22.02;20.42;;;12.60;99.90;;;;;;6215537;23;20012;-82
2023/09/25 06:47:33;;;;;;;20.70;19.23;;;12.70;99.90;;;;;;6215684;23;20555;-82
2023/09/25 06:49:59;;;;;;;25.85;24.00;;;12.70;99.90;;;;;;6241303;23;20023;-82
2023/09/25 06:52:25;;;;;;;23.48;21.38;;;12.80;99.90;;;;;;6215537;23;20074;-82
2023/09/25 06:54:51;;;;;;;21.15;19.65;;;12.90;99.90;;;;;;6215785;23;20016;-82
2023/09/25 06:57:16;;;;;;;25.70;24.00;;;13.00;99.90;;;;;;6240832;23;20012;-81
2023/09/25 06:59:42;;;;;;;20.73;17.70;;;13.10;99.90;;;;;;6240606;23;20062;-82
2023/09/25 07:02:08;;;;;;;19.75;18.27;;;13.10;99.90;;;;;;6240920;23;20027;-82
2023/09/25 07:04:34;;;;;;;23.23;21.70;;;13.40;99.90;;;;;;6241037;23;20012;-82
2023/09/25 07:06:59;;;;;;;17.67;16.38;;;13.20;99.90;;;;;;6190028;23;20012;-81
2023/09/25 07:09:25;;;;;;;20.15;18.58;;;13.20;99.90;;;;;;6241310;23;20083;-82
2023/09/25 07:11:51;;;;;;;26.05;23.98;;;13.50;99.90;;;;;;6215727;23;20035;-81
2023/09/25 07:14:17;;;;;;;17.98;16.58;;;13.50;99.90;;;;;;6215483;23;20012;-82
2023/09/25 07:16:42;;;;;;;19.35;17.77;;;13.70;99.90;;;;;;6215400;23;20020;-82
2023/09/25 07:19:10;;;;;;;22.98;21.27;;;13.40;99.90;;;;;;6240679;23;20008;-81
2023/09/25 07:21:37;;;;;;;23.92;22.10;;;13.50;99.90;;;;;;6240420;23;20168;-81
2023/09/25 07:24:02;;;;;;;18.33;17.00;;;13.50;99.90;;;;;;6241387;23;20019;-81
2023/09/25 07:26:28;;;;;;;16.75;15.52;;;13.60;99.90;;;;;;6215331;23;20005;-82
2023/09/25 07:28:54;;;;;;;22.83;20.92;;;13.70;99.90;;;;;;6215587;23;20008;-81
2023/09/25 07:31:22;;;;;;;13.98;12.68;;;13.70;99.90;;;;;;6240788;23;20030;-81
2023/09/25 07:33:49;;;;;;;19.05;17.77;;;13.80;99.90;;;;;;6242081;23;20194;-82
2023/09/25 07:36:20;;;;;;;17.75;16.42;;;13.90;99.90;;;;;;6215047;23;20020;-81
2023/09/25 07:38:49;;;;;;;13.75;12.63;;;13.80;99.90;;;;;;6190036;23;20008;-81
2023/09/25 07:41:15;;;;;;;19.35;17.73;;;14.00;99.90;;;;;;6215064;23;20027;-81
2023/09/25 07:43:41;;;;;;;20.80;19.20;;;14.10;99.90;;;;;;6215088;23;20012;-81
2023/09/25 07:46:08;;;;;;;15.57;14.07;;;14.10;99.90;;;;;;6215108;23;20074;-82
2023/09/25 07:48:39;;;;;;;24.33;22.55;;;14.30;99.90;;;;;;6215527;23;20038;-81
2023/09/25 07:51:07;;;;;;;17.08;15.73;;;14.30;99.90;;;;;;6214969;23;20024;-81
2023/09/25 07:53:33;;;;;;;15.52;14.38;;;14.40;99.90;;;;;;6190753;23;20018;-82
2023/09/25 07:55:59;;;;;;;15.10;13.88;;;14.50;99.90;;;;;;6214924;23;20163;-82
2023/09/25 07:58:27;;;;;;;17.70;16.33;;;14.70;99.90;;;;;;6215404;23;20016;-81
2023/09/25 08:00:55;;;;;;;21.90;20.42;;;14.80;99.90;;;;;;6190096;23;20023;-82
2023/09/25 08:03:22;;;;;;;14.00;12.85;;;14.90;99.90;;;;;;6214803;23;20016;-81
2023/09/25 08:05:48;;;;;;;10.75;9.75;;;15.00;99.90;;;;;;6239712;23;20023;-81
2023/09/25 08:08:15;;;;;;;14.38;13.27;;;15.20;99.90;;;;;;6214955;23;20012;-82
2023/09/25 08:10:45;;;;;;;16.15;14.88;;;15.30;99.90;;;;;;6214652;23;20020;-82
2023/09/25 08:13:11;;;;;;;11.52;10.52;;;15.30;99.90;;;;;;6214797;23;20435;-81
2023/09/25 08:15:37;;;;;;;14.73;13.63;;;15.60;99.90;;;;;;6215017;23;20023;-82
2023/09/25 08:18:03;;;;;;;10.32;9.45;;;15.60;99.90;;;;;;6190102;23;20089;-82
2023/09/25 08:20:29;;;;;;;9.88;8.90;;;15.70;99.90;;;;;;6214675;23;20016;-82
2023/09/25 08:22:55;;;;;;;9.48;8.48;;;15.70;99.90;;;;;;6240408;23;20518;-82
2023/09/25 08:25:21;;;;;;;8.48;7.78;;;15.90;99.90;;;;;;6214973;23;20027;-82
2023/09/25 08:27:48;;;;;;;10.10;8.80;;;15.90;99.90;;;;;;6214694;23;20008;-82
2023/09/25 08:30:18;;;;;;;8.18;7.47;;;16.00;99.90;;;;;;6239764;23;20053;-81
2023/09/25 08:32:45;;;;;;;11.98;11.02;;;15.90;99.90;;;;;;6214874;23;20054;-82
2023/09/25 08:35:11;;;;;;;10.10;9.27;;;16.10;99.90;;;;;;6214066;23;20008;-82
2023/09/25 08:37:41;;;;;;;9.93;9.02;;;16.30;99.90;;;;;;6214950;23;20043;-82
2023/09/25 08:40:09;;;;;;;6.88;6.18;;;16.40;99.90;;;;;;6214612;23;20082;-81
2023/09/25 08:42:35;;;;;;;6.57;5.95;;;16.50;99.90;;;;;;6214525;23;20070;-82
2023/09/25 08:45:03;;;;;;;7.75;7.00;;;16.50;99.90;;;;;;6241480;23;20012;-82
2023/09/25 08:47:31;;;;;;;8.43;7.38;;;16.60;99.90;;;;;;6239607;23;20012;-82
2023/09/25 08:49:57;;;;;;;12.85;11.80;;;16.60;99.90;;;;;;6214832;23;20012;-82
2023/09/25 08:52:23;;;;;;;8.90;7.78;;;16.70;99.90;;;;;;6214483;23;20020;-82
2023/09/25 08:54:51;;;;;;;11.15;7.88;;;16.70;99.90;;;;;;6214232;23;20050;-82
2023/09/25 08:57:17;;;;;;;8.45;7.63;;;16.80;99.90;;;;;;6239532;23;20083;-82
2023/09/25 08:59:47;;;;;;;7.43;6.72;;;16.80;99.90;;;;;;6214276;23;20012;-82
2023/09/25 09:02:13;;;;;;;8.38;7.20;;;16.80;99.90;;;;;;6240787;23;20026;-82
2023/09/25 09:04:39;;;;;;;9.10;8.20;;;16.90;99.90;;;;;;6214324;23;20492;-82
2023/09/25 09:07:07;;;;;;;8.10;7.40;;;16.90;99.90;;;;;;6239893;23;20087;-82
2023/09/25 09:09:32;;;;;;;8.10;7.30;;;17.10;99.90;;;;;;6239942;23;20117;-82
2023/09/25 09:11:58;;;;;;;10.85;6.20;;;17.10;99.90;;;;;;6214490;23;20554;-81
2023/09/25 09:14:42;;;;;;;8.75;7.82;;;17.20;99.90;;;;;;6214260;23;20020;-82
2023/09/25 09:17:12;;;;;;;7.78;7.07;;;17.20;99.90;;;;;;6213593;23;20031;-81
2023/09/25 09:19:44;;;;;;;7.40;6.53;;;17.30;99.90;;;;;;6239458;23;20004;-82
2023/09/25 09:22:10;;;;;;;15.38;13.82;;;17.30;99.90;;;;;;6239663;23;20407;-81
2023/09/25 09:24:41;;;;;;;8.32;6.38;;;17.30;99.90;;;;;;6239446;23;20020;-82
2023/09/25 09:27:07;;;;;;;9.30;7.50;;;17.30;99.90;;;;;;6215131;23;20016;-82
2023/09/25 09:29:43;;;;;;;9.07;7.28;;;17.40;99.90;;;;;;6241628;23;20115;-82
2023/09/25 09:32:10;;;;;;;6.90;6.30;;;17.50;99.90;;;;;;6215017;23;20090;-81
2023/09/25 09:34:39;;;;;;;8.85;8.07;;;17.60;99.90;;;;;;6240644;23;20034;-82
2023/09/25 09:37:08;;;;;;;8.88;7.82;;;17.80;99.90;;;;;;6214422;23;20248;-81
2023/09/25 09:39:35;;;;;;;9.90;7.63;;;17.80;99.90;;;;;;6214378;23;20023;-82
2023/09/25 09:42:05;;;;;;;7.97;7.18;;;17.70;99.90;;;;;;6214319;23;20443;-82
2023/09/25 09:44:31;;;;;;;6.55;5.43;;;17.80;99.90;;;;;;6214177;23;20095;-82
2023/09/25 09:46:57;;;;;;;7.20;6.50;;;17.90;99.90;;;;;;6240827;23;20447;-82
2023/09/25 09:49:25;;;;;;;8.45;7.60;;;17.90;99.90;;;;;;6214479;23;20035;-82
2023/09/25 09:51:51;;;;;;;6.82;5.80;;;17.90;99.90;;;;;;6214647;23;20614;-82
2023/09/25 09:54:21;;;;;;;6.93;6.32;;;18.00;99.90;;;;;;6214471;23;20459;-82
2023/09/25 09:56:48;;;;;;;7.18;5.80;;;18.10;99.90;;;;;;6213922;23;20446;-82
2023/09/25 09:59:17;;;;;;;8.10;6.78;;;18.10;99.90;;;;;;6239249;23;20521;-82
2023/09/25 10:01:50;;;;;;;8.60;6.80;;;18.20;99.90;;;;;;6213520;23;20255;-82
2023/09/25 10:04:15;;;;;;;8.73;6.38;;;18.20;99.90;;;;;;6213890;23;20023;-82
2023/09/25 10:06:50;;;;;;;10.27;5.72;;;18.30;99.90;;;;;;6239430;23;20012;-82
2023/09/25 10:09:16;;;;;;;7.55;4.50;;;18.40;99.90;;;;;;6214325;23;20008;-82
2023/09/25 10:11:43;;;;;;;6.82;5.30;;;18.40;99.90;;;;;;6239658;23;20346;-82
2023/09/25 10:14:09;;;;;;;7.00;6.05;;;18.50;99.90;;;;;;6239691;22;20058;-82
2023/09/25 10:16:55;;;;;;;8.93;5.88;;;18.50;99.90;;;;;;6213703;23;20022;-82
2023/09/25 10:19:22;;;;;;;5.78;5.03;;;18.60;99.90;;;;;;6239467;23;20012;-82
2023/09/25 10:22:16;;;;;;;5.03;4.20;;;18.60;99.90;;;;;;6239879;23;20059;-82
2023/09/25 10:24:43;;;;;;;7.28;4.93;;;18.70;99.90;;;;;;6189392;23;20016;-82
2023/09/25 10:27:17;;;;;;;6.38;5.20;;;18.70;99.90;;;;;;6239503;23;20455;-82
2023/09/25 10:30:04;;;;;;;6.53;5.65;;;18.80;99.90;;;;;;6213684;23;20019;-82
2023/09/25 10:32:30;;;;;;;6.95;6.13;;;18.80;99.90;;;;;;6214878;23;20306;-82
2023/09/25 10:34:56;;;;;;;8.35;5.20;;;18.80;99.90;;;;;;6214871;23;20047;-82
2023/09/25 10:37:22;;;;;;;6.53;5.00;;;18.90;99.90;;;;;;6216604;23;20023;-82
2023/09/25 10:39:56;;;;;;;6.80;5.13;;;18.90;99.90;;;;;;6216420;23;20012;-82
2023/09/25 10:42:22;;;;;;;7.53;6.32;;;19.00;99.90;;;;;;6241490;23;20443;-82
2023/09/25 10:44:48;;;;;;;9.13;7.28;;;19.10;99.90;;;;;;6215720;23;20035;-82
2023/09/25 10:47:14;;;;;;;5.35;4.82;;;19.20;99.90;;;;;;6241653;23;20016;-82
2023/09/25 10:49:39;;;;;;;5.75;5.15;;;19.20;99.90;;;;;;6243278;23;20012;-82
2023/09/25 10:52:05;;;;;;;6.10;5.45;;;19.30;99.90;;;;;;6216408;23;20462;-82
2023/09/25 10:54:33;;;;;;;5.70;3.53;;;19.40;99.90;;;;;;6215876;23;20020;-83
2023/09/25 10:56:59;;;;;;;6.18;5.55;;;19.50;99.90;;;;;;6190980;23;20012;-82
2023/09/25 10:59:26;;;;;;;8.73;5.75;;;19.50;99.90;;;;;;6190810;23;20015;-82
2023/09/25 11:01:52;;;;;;;6.75;5.47;;;19.50;99.90;;;;;;6216550;23;20012;-82
2023/09/25 11:04:18;;;;;;;6.50;5.40;;;19.60;99.90;;;;;;6241683;23;20005;-82
2023/09/25 11:06:47;;;;;;;8.68;4.13;;;19.70;99.90;;;;;;6192042;23;20042;-82
2023/09/25 11:09:17;;;;;;;7.45;4.93;;;19.70;99.90;;;;;;6241829;23;20440;-83
2023/09/25 11:11:44;;;;;;;8.93;4.70;;;19.80;99.90;;;;;;6241512;23;20095;-82
2023/09/25 11:14:10;;;;;;;5.93;4.50;;;19.80;99.90;;;;;;6190600;23;20020;-82
2023/09/25 11:16:36;;;;;;;7.07;4.22;;;19.90;99.90;;;;;;6241421;23;20030;-82
2023/09/25 11:19:13;;;;;;;7.05;4.85;;;19.90;99.90;;;;;;6241397;23;20016;-82
2023/09/25 11:21:39;;;;;;;6.72;3.65;;;20.00;99.90;;;;;;6241643;23;20024;-82
2023/09/25 11:24:10;;;;;;;7.47;4.53;;;20.10;99.90;;;;;;6216169;23;20012;-82
2023/09/25 11:26:41;;;;;;;6.53;5.53;;;20.10;99.90;;;;;;6240889;23;20031;-82
2023/09/25 11:29:12;;;;;;;8.25;4.32;;;20.20;99.90;;;;;;6215224;23;20027;-82
2023/09/25 11:31:38;;;;;;;5.30;3.55;;;20.20;99.90;;;;;;6215742;23;20012;-82
2023/09/25 11:34:07;;;;;;;4.97;3.42;;;20.30;99.90;;;;;;6216237;23;20016;-83
2023/09/25 11:36:34;;;;;;;6.60;4.10;;;20.30;99.90;;;;;;6216183;23;20091;-82
2023/09/25 11:39:00;;;;;;;4.97;4.03;;;20.40;99.90;;;;;;6241614;23;20026;-82
2023/09/25 11:41:26;;;;;;;6.03;4.32;;;20.50;99.90;;;;;;6240866;23;20066;-83
2023/09/25 11:43:52;;;;;;;8.52;4.15;;;20.50;99.90;;;;;;6216211;23;20012;-83
2023/09/25 11:46:17;;;;;;;5.35;4.40;;;20.60;99.90;;;;;;6215847;23;20016;-82
2023/09/25 11:48:44;;;;;;;7.68;3.45;;;20.60;99.90;;;;;;6241106;23;20379;-81
2023/09/25 11:51:10;;;;;;;5.25;4.22;;;20.70;99.90;;;;;;6215533;23;20070;-83
2023/09/25 11:53:35;;;;;;;6.85;4.70;;;20.80;99.90;;;;;;6241569;23;20062;-82
2023/09/25 11:56:01;;;;;;;5.88;4.20;;;20.80;99.90;;;;;;6189697;23;20016;-82
2023/09/25 11:58:30;;;;;;;6.82;5.05;;;20.90;99.90;;;;;;6215961;23;20054;-82
2023/09/25 12:00:55;;;;;;;5.80;3.53;;;21.00;99.90;;;;;;6215454;23;20016;-82
2023/09/25 12:03:21;;;;;;;6.60;5.32;;;21.00;99.90;;;;;;6215491;23;20044;-82
2023/09/25 12:05:47;;;;;;;7.43;4.30;;;21.00;99.90;;;;;;6215263;23;20012;-82
2023/09/25 12:08:13;;;;;;;7.43;5.25;;;21.10;99.90;;;;;;6215347;23;20008;-82
2023/09/25 12:10:39;;;;;;;7.38;4.45;;;21.10;99.90;;;;;;6239571;23;20194;-82
2023/09/25 12:13:06;;;;;;;6.78;3.83;;;21.20;99.90;;;;;;6240619;23;20062;-83
2023/09/25 12:15:32;;;;;;;6.07;4.68;;;21.20;99.90;;;;;;6214810;23;20385;-82
2023/09/25 12:17:58;;;;;;;5.55;3.83;;;21.30;99.90;;;;;;6240144;23;20020;-82
2023/09/25 12:20:24;;;;;;;5.53;4.07;;;21.30;99.90;;;;;;6214208;23;20012;-82
2023/09/25 12:22:54;;;;;;;5.18;3.80;;;21.40;99.90;;;;;;6214805;23;20024;-82
2023/09/25 12:25:21;;;;;;;5.72;4.05;;;21.40;99.90;;;;;;6215528;23;20024;-82
2023/09/25 12:27:46;;;;;;;6.22;3.85;;;21.40;99.90;;;;;;6188878;23;20019;-82
2023/09/25 12:30:15;;;;;;;6.20;3.17;;;21.50;99.90;;;;;;6214128;23;20012;-83
2023/09/25 12:32:43;;;;;;;5.75;4.00;;;21.60;99.90;;;;;;6214590;23;20012;-81